首页
METAR-TAF:

METAR-TAF

机场 :

圣塞瓦斯蒂安机场

圣塞瓦斯蒂安, 西班牙

纬度: 43-21N, 经度: 001-48W, 海拔: 5米

当前天气观测

该预报发布于11分钟前的01:30 UTC
风速9节,风向西转西北,在西之间变化
温度 10°C
湿度 87%
气压 1003 hPa
能見度: 5000
散云层高于2100英尺
多云层高于3300英尺
阴天层高于4300英尺
雨, 轻雾

METAR: LESO 140130Z AUTO 30009KT 260V350 5000 RA BR SCT021 BKN033 OVC043 10/08 Q1003

时间: 02:41 (01:41 UTC)

预报

该预报发布于2小时和41分钟前的23:00 UTC
预报有效从14日的 00点(UTC)到 14日的 24点(UTC)
风速8节,风向西转西南
能见度10公里或以上
散云层高于2000英尺
多云层高于3500英尺
短暂存在
从 14日的 00点(UTC)到 14日的 09点(UTC)
风速15节,风向西,有时为30节阵风
短暂存在
从 14日的 00点(UTC)到 14日的 09点(UTC)
能見度: 3000
散云层高于3000英尺, 塔状积云.
雨, 阵雨
几率 40% :
短暂存在
从 14日的 00点(UTC)到 14日的 06点(UTC)
能見度: 4500
多云层高于1000英尺
小雨
几率 40% :
短暂存在
从 14日的 03点(UTC)到 14日的 07点(UTC)
能見度: 3000
多云层高于1000英尺
散云层高于3000英尺, 积雨云.
阵雨, 雷暴

TAF: LESO 132300Z 1400/1424 25008KT 9999 SCT020 BKN035 TX12/1414Z TN07/1406Z TEMPO 1400/1409 27015G30KT TEMPO 1400/1409 3000 RA SHRA SCT030TCU PROB40 TEMPO 1400/1406 4500 -RA BKN010 PROB40 TEMPO 1403/1407 3000 SHRA TS BKN010 SCT030CB

超过4000个机场的气象观测和天气预报(METAR&TAF报告)。

可查询的气象台以黄色和红色小点在地图上表示。

将鼠标移到小点上方,可查看气象台名称。

然后点击查看天气观测和预报。

如需切换地图:点击带黑十字的绿色按钮放大地图;点击带横线的绿色按钮缩小地图;或者点击绿色箭头查看邻近地区的地图。


METAR-TAF: